Aldrich, Missouri
Current Conditions -  °F | °C
As of 5:52 AM on Sunday 21 Dec 2014 (Local Time) from KSGF Reporting Station
Overcast Overcast  
Wind Chill: 35°   Ceiling: 2200
Heat Index: 41°   Visibility: 10mi
Dew Point: 36°   Wind: 9mph
Humidity: 82%   Direction: 160°SSE
Pressure: 30.1"   Gusts: NA
Location:  37.55°N, 93.55°W
Report Text: KSGF 211152Z 16008KT 10SM OVC022 05/02 A3010 RMK AO2 SLP199 T00500022 10050 20044 56009
Loading
Personal Weather Stations






























Interactive Weather Map New forecast layout! Learn more

10-Day Weather Forecast

Advertisements
Track Severe Weather on mobile